Time;durP1;ratioP1;P1;durP2;ratioP2;P2;SDS_P1;SDS_P2;PMS_P1;PMS_P2;Temp;Humidity;BMP_temperature;BMP_pressure;BME280_temperature;BME280_humidity;BME280_pressure;Samples;Min_cycle;Max_cycle;Signal;HPM_P1;HPM_P2
2023/12/27 00:01:22;;;;;;;4.47;4.47;;;4.40;99.90;;;;;;5046459;28;20448;-71
2023/12/27 00:03:49;;;;;;;4.30;4.30;;;4.30;99.90;;;;;;5049508;28;20459;-70
2023/12/27 00:06:16;;;;;;;4.70;4.70;;;4.30;99.90;;;;;;5049213;28;20459;-69
2023/12/27 00:08:43;;;;;;;4.37;4.37;;;4.20;99.90;;;;;;5041571;28;20731;-70
2023/12/27 00:11:11;;;;;;;4.50;4.50;;;4.20;99.90;;;;;;5042000;28;20485;-72
2023/12/27 00:13:37;;;;;;;4.53;4.53;;;4.20;99.90;;;;;;5047696;28;20541;-72
2023/12/27 00:16:05;;;;;;;4.23;4.23;;;4.30;99.90;;;;;;5043600;28;20459;-71
2023/12/27 00:18:32;;;;;;;4.40;4.40;;;4.30;99.90;;;;;;5046233;28;20479;-71
2023/12/27 00:20:58;;;;;;;4.63;4.63;;;4.30;99.90;;;;;;5044075;28;20470;-71
2023/12/27 00:23:27;;;;;;;5.03;5.00;;;4.30;99.90;;;;;;5045942;28;20457;-71
2023/12/27 00:25:54;;;;;;;4.57;4.57;;;4.30;99.90;;;;;;5048276;28;21705;-72
2023/12/27 00:28:22;;;;;;;4.60;4.60;;;4.20;99.90;;;;;;5039038;28;20483;-71
2023/12/27 00:30:51;;;;;;;4.50;4.50;;;4.10;99.90;;;;;;5048375;28;20475;-71
2023/12/27 00:33:18;;;;;;;4.30;4.30;;;4.00;99.90;;;;;;5040670;28;20465;-72
2023/12/27 00:35:45;;;;;;;4.83;4.83;;;4.00;99.90;;;;;;5048399;28;20476;-72
2023/12/27 00:38:12;;;;;;;4.63;4.63;;;3.90;99.90;;;;;;5048448;28;20828;-72
2023/12/27 00:40:39;;;;;;;5.30;5.20;;;3.90;99.90;;;;;;5046696;28;20956;-71
2023/12/27 00:43:07;;;;;;;5.00;5.00;;;3.90;99.90;;;;;;5045848;28;20462;-70
2023/12/27 00:45:35;;;;;;;5.30;5.20;;;3.80;99.90;;;;;;5039746;28;20492;-70
2023/12/27 00:48:02;;;;;;;5.60;5.50;;;3.80;99.90;;;;;;5036011;28;20465;-71
2023/12/27 00:50:29;;;;;;;5.33;5.23;;;3.80;99.90;;;;;;5038370;28;20467;-70
2023/12/27 00:52:56;;;;;;;5.57;5.47;;;3.80;99.90;;;;;;5041854;28;20481;-71
2023/12/27 00:55:24;;;;;;;5.20;5.10;;;3.80;99.90;;;;;;5037846;28;20556;-72
2023/12/27 00:57:50;;;;;;;5.43;5.33;;;3.90;99.90;;;;;;5041022;28;20455;-72
2023/12/27 01:00:18;;;;;;;5.50;5.40;;;3.90;99.90;;;;;;5046537;28;20479;-70
2023/12/27 01:02:46;;;;;;;4.77;4.77;;;4.00;99.90;;;;;;5042119;28;20461;-72
2023/12/27 01:05:13;;;;;;;5.50;5.40;;;4.00;99.90;;;;;;5039301;28;20478;-72
2023/12/27 01:07:40;;;;;;;4.97;4.97;;;4.10;99.90;;;;;;5046346;28;20887;-72
2023/12/27 01:10:07;;;;;;;4.47;4.47;;;4.10;99.90;;;;;;5045322;28;20452;-70
2023/12/27 01:12:34;;;;;;;4.73;4.73;;;4.10;99.90;;;;;;5042793;28;20497;-72
2023/12/27 01:15:01;;;;;;;4.60;4.60;;;4.10;99.90;;;;;;5036310;28;20453;-72
2023/12/27 01:17:28;;;;;;;4.67;4.67;;;4.10;99.90;;;;;;5045553;28;20459;-70
2023/12/27 01:19:57;;;;;;;5.00;5.00;;;4.20;99.90;;;;;;5042088;28;20483;-71
2023/12/27 01:22:24;;;;;;;5.43;5.33;;;4.20;99.90;;;;;;5045032;28;20475;-70
2023/12/27 01:24:52;;;;;;;5.23;5.13;;;4.20;99.90;;;;;;5034987;28;20522;-72
2023/12/27 01:27:19;;;;;;;5.50;5.40;;;4.30;99.90;;;;;;5039049;28;20453;-71
2023/12/27 01:29:47;;;;;;;5.70;5.60;;;4.40;99.90;;;;;;5038567;28;20495;-71
2023/12/27 01:32:14;;;;;;;5.60;5.50;;;4.40;99.90;;;;;;5046734;28;20509;-71
2023/12/27 01:34:40;;;;;;;5.80;5.70;;;4.40;99.90;;;;;;5033300;28;20469;-71
2023/12/27 01:37:09;;;;;;;6.00;5.90;;;4.40;99.90;;;;;;5042294;28;20454;-71
2023/12/27 01:39:36;;;;;;;5.93;5.83;;;4.30;99.90;;;;;;5040492;28;20491;-70
2023/12/27 01:42:03;;;;;;;5.83;5.73;;;4.30;99.90;;;;;;5040008;28;20464;-71
2023/12/27 01:44:30;;;;;;;5.90;5.80;;;4.20;99.90;;;;;;5044819;28;20460;-71
2023/12/27 01:46:57;;;;;;;6.40;6.30;;;4.10;99.90;;;;;;5041472;28;20463;-72
2023/12/27 01:49:25;;;;;;;6.30;6.20;;;4.10;99.90;;;;;;5036796;28;20461;-70
2023/12/27 01:51:52;;;;;;;6.20;6.10;;;4.20;99.90;;;;;;5034232;28;20953;-72
2023/12/27 01:54:20;;;;;;;5.63;5.53;;;4.20;99.90;;;;;;5046621;28;20490;-69
2023/12/27 01:56:48;;;;;;;6.00;5.90;;;4.20;99.90;;;;;;5045554;28;20456;-70
2023/12/27 01:59:15;;;;;;;6.07;5.97;;;4.20;99.90;;;;;;5037099;28;21241;-71
2023/12/27 02:01:42;;;;;;;6.03;5.93;;;4.30;99.90;;;;;;5043471;28;20546;-71
2023/12/27 02:04:10;;;;;;;6.23;6.13;;;4.20;99.90;;;;;;5036603;28;20468;-71
2023/12/27 02:06:36;;;;;;;6.10;6.00;;;4.10;99.90;;;;;;5041148;28;20529;-70
2023/12/27 02:09:04;;;;;;;5.90;5.80;;;4.10;99.90;;;;;;5046128;28;20943;-70
2023/12/27 02:11:32;;;;;;;5.70;5.60;;;4.00;99.90;;;;;;5040732;28;20451;-71
2023/12/27 02:13:59;;;;;;;5.63;5.53;;;4.00;99.90;;;;;;5044618;28;20453;-71
2023/12/27 02:16:26;;;;;;;5.90;5.80;;;4.00;99.90;;;;;;5046120;28;20463;-71
2023/12/27 02:18:53;;;;;;;6.20;6.10;;;4.00;99.90;;;;;;5039834;28;20495;-71
2023/12/27 02:21:21;;;;;;;5.80;5.70;;;4.00;99.90;;;;;;5042151;28;21053;-71
2023/12/27 02:23:52;;;;;;;6.37;6.27;;;3.90;99.90;;;;;;5036572;28;20550;-71
2023/12/27 02:26:21;;;;;;;6.43;6.33;;;3.90;99.90;;;;;;5045833;28;20449;-70
2023/12/27 02:28:48;;;;;;;6.60;6.50;;;3.90;99.90;;;;;;5037909;28;21678;-71
2023/12/27 02:31:15;;;;;;;6.83;6.73;;;3.90;99.90;;;;;;5043981;28;20923;-70
2023/12/27 02:33:44;;;;;;;7.10;7.00;;;3.90;99.90;;;;;;5038885;28;20813;-71
2023/12/27 02:36:11;;;;;;;7.10;7.00;;;3.80;99.90;;;;;;5036201;28;20488;-70
2023/12/27 02:38:37;;;;;;;6.80;6.70;;;3.90;99.90;;;;;;5045514;28;20474;-70
2023/12/27 02:41:05;;;;;;;7.00;6.90;;;3.90;99.90;;;;;;5041693;28;20461;-70
2023/12/27 02:43:33;;;;;;;7.07;6.97;;;3.90;99.90;;;;;;5046216;28;20924;-70
2023/12/27 02:46:02;;;;;;;7.23;7.13;;;3.80;99.90;;;;;;5040819;28;20965;-70
2023/12/27 02:48:29;;;;;;;7.60;7.50;;;3.90;99.90;;;;;;5046044;28;20474;-70
2023/12/27 02:50:56;;;;;;;6.67;6.57;;;3.80;99.90;;;;;;5032608;28;20462;-71
2023/12/27 02:53:23;;;;;;;7.80;7.70;;;3.80;99.90;;;;;;5035851;28;20456;-70
2023/12/27 02:55:51;;;;;;;6.90;6.80;;;3.80;99.90;;;;;;5043993;28;20445;-71
2023/12/27 02:58:19;;;;;;;7.90;7.80;;;3.70;99.90;;;;;;5042864;28;20809;-71
2023/12/27 03:00:48;;;;;;;8.10;8.00;;;3.70;99.90;;;;;;5045498;28;20976;-71
2023/12/27 03:03:15;;;;;;;7.90;7.80;;;3.70;99.90;;;;;;5031873;28;20474;-71
2023/12/27 03:05:41;;;;;;;7.80;7.70;;;3.70;99.90;;;;;;5042429;28;20805;-71
2023/12/27 03:08:08;;;;;;;8.07;7.97;;;3.80;99.90;;;;;;5045430;28;20822;-70
2023/12/27 03:10:35;;;;;;;8.10;8.00;;;3.90;99.90;;;;;;5041179;28;20522;-69
2023/12/27 03:13:02;;;;;;;8.20;8.10;;;4.00;99.90;;;;;;5045189;28;20553;-72
2023/12/27 03:15:29;;;;;;;7.97;7.87;;;3.90;99.90;;;;;;5036792;28;20458;-70
2023/12/27 03:17:58;;;;;;;8.40;8.30;;;3.90;99.90;;;;;;5044615;28;20458;-70
2023/12/27 03:20:25;;;;;;;8.03;7.93;;;3.90;99.90;;;;;;5044932;28;20485;-70
2023/12/27 03:22:51;;;;;;;8.30;8.20;;;3.90;99.90;;;;;;5036436;28;20468;-70
2023/12/27 03:25:18;;;;;;;7.57;7.47;;;3.80;99.90;;;;;;5037827;28;20464;-70
2023/12/27 03:27:45;;;;;;;8.97;8.87;;;3.80;99.90;;;;;;5044842;28;20447;-70
2023/12/27 03:30:13;;;;;;;8.23;8.13;;;3.90;99.90;;;;;;5040282;28;20472;-71
2023/12/27 03:32:40;;;;;;;8.03;7.93;;;4.00;99.90;;;;;;5044378;28;20452;-71
2023/12/27 03:35:09;;;;;;;8.07;7.97;;;4.00;99.90;;;;;;5044375;28;20471;-70
2023/12/27 03:37:35;;;;;;;7.63;7.53;;;4.10;99.90;;;;;;5042352;28;20779;-72
2023/12/27 03:40:03;;;;;;;8.13;8.03;;;4.10;99.90;;;;;;5035326;28;20491;-72
2023/12/27 03:42:30;;;;;;;8.57;8.47;;;4.10;99.90;;;;;;5034878;28;20498;-71
2023/12/27 03:44:56;;;;;;;8.33;8.23;;;4.20;99.90;;;;;;5045176;28;20476;-71
2023/12/27 03:47:23;;;;;;;8.87;8.77;;;4.30;99.90;;;;;;5042310;28;20461;-71
2023/12/27 03:49:51;;;;;;;8.33;8.23;;;4.30;99.90;;;;;;5044263;28;20831;-69
2023/12/27 03:52:19;;;;;;;9.40;9.30;;;4.30;99.90;;;;;;5037421;28;20645;-69
2023/12/27 03:54:47;;;;;;;8.10;8.00;;;4.30;99.90;;;;;;5040806;28;20462;-69
2023/12/27 03:57:13;;;;;;;9.00;8.90;;;4.40;99.90;;;;;;5036068;28;20458;-69
2023/12/27 03:59:41;;;;;;;8.57;8.47;;;4.40;99.90;;;;;;5038984;28;20479;-70
2023/12/27 04:02:09;;;;;;;8.93;8.83;;;4.50;99.90;;;;;;5040481;28;20596;-69
2023/12/27 04:04:39;;;;;;;8.53;8.43;;;4.50;99.90;;;;;;5039390;28;20462;-69
2023/12/27 04:07:06;;;;;;;8.60;8.50;;;4.60;99.90;;;;;;5044507;28;20507;-71
2023/12/27 04:09:38;;;;;;;8.57;8.47;;;4.60;99.90;;;;;;5040026;28;20951;-70
2023/12/27 04:12:06;;;;;;;8.47;8.37;;;4.60;99.90;;;;;;5032137;28;20471;-70
2023/12/27 04:14:33;;;;;;;8.67;8.57;;;4.60;99.90;;;;;;5040271;28;20472;-69
2023/12/27 04:17:00;;;;;;;8.33;8.23;;;4.70;99.90;;;;;;5042660;28;20475;-70
2023/12/27 04:19:27;;;;;;;9.07;8.97;;;4.70;99.90;;;;;;5035310;28;20479;-70
2023/12/27 04:21:54;;;;;;;8.63;8.53;;;4.80;99.90;;;;;;5045149;28;20460;-71
2023/12/27 04:24:21;;;;;;;8.80;8.70;;;4.80;99.90;;;;;;5042145;28;20871;-72
2023/12/27 04:26:49;;;;;;;8.80;8.70;;;4.80;99.90;;;;;;5032316;28;20942;-71
2023/12/27 04:29:16;;;;;;;9.17;9.07;;;4.90;99.90;;;;;;5035298;28;21079;-71
2023/12/27 04:31:44;;;;;;;8.23;8.13;;;4.90;99.90;;;;;;5039423;28;20467;-69
2023/12/27 04:34:11;;;;;;;7.80;7.70;;;5.00;99.90;;;;;;5044703;28;20488;-71
2023/12/27 04:36:38;;;;;;;7.70;7.60;;;5.00;99.90;;;;;;5044956;28;20528;-71
2023/12/27 04:39:06;;;;;;;7.93;7.83;;;4.90;99.90;;;;;;5035507;28;20460;-71
2023/12/27 04:41:33;;;;;;;7.90;7.80;;;5.00;99.90;;;;;;5038197;28;20459;-72
2023/12/27 04:44:02;;;;;;;7.83;7.73;;;5.00;99.90;;;;;;5044266;28;20460;-71
2023/12/27 04:46:29;;;;;;;7.93;7.83;;;5.10;99.90;;;;;;5036366;28;20458;-71
2023/12/27 04:48:56;;;;;;;7.93;7.83;;;5.10;99.90;;;;;;5048115;28;20463;-70
2023/12/27 04:51:23;;;;;;;7.47;7.37;;;5.10;99.90;;;;;;5043246;28;20465;-71
2023/12/27 04:53:51;;;;;;;7.10;7.00;;;5.20;99.90;;;;;;5048413;28;20459;-71
2023/12/27 04:56:18;;;;;;;6.83;6.73;;;5.20;99.90;;;;;;5034807;28;20467;-71
2023/12/27 04:58:44;;;;;;;6.60;6.50;;;5.30;99.90;;;;;;5037587;28;20468;-72
2023/12/27 05:01:12;;;;;;;6.73;6.63;;;5.40;99.90;;;;;;5046789;28;20570;-71
2023/12/27 05:03:39;;;;;;;5.90;5.80;;;5.40;99.90;;;;;;5045199;28;20461;-71
2023/12/27 05:06:07;;;;;;;5.60;5.50;;;5.40;99.90;;;;;;5045355;28;20470;-70
2023/12/27 05:08:34;;;;;;;5.90;5.80;;;5.40;99.90;;;;;;5047850;28;20448;-70
2023/12/27 05:11:01;;;;;;;5.87;5.77;;;5.50;99.90;;;;;;5045463;28;20468;-72
2023/12/27 05:13:28;;;;;;;5.70;5.60;;;5.50;99.90;;;;;;5039507;28;20463;-70
2023/12/27 05:15:55;;;;;;;5.43;5.33;;;5.50;99.90;;;;;;5042050;28;20846;-71
2023/12/27 05:18:24;;;;;;;5.57;5.47;;;5.40;99.90;;;;;;5040302;28;20669;-71
2023/12/27 05:20:51;;;;;;;5.30;5.20;;;5.50;99.90;;;;;;5045335;28;20482;-71
2023/12/27 05:23:18;;;;;;;5.50;5.40;;;5.50;99.90;;;;;;5042586;28;20465;-70
2023/12/27 05:25:45;;;;;;;5.20;5.10;;;5.50;99.90;;;;;;5037183;28;20463;-72
2023/12/27 05:28:14;;;;;;;4.80;4.80;;;5.50;99.90;;;;;;5047004;28;20966;-72
2023/12/27 05:30:41;;;;;;;4.70;4.70;;;5.60;99.90;;;;;;5047422;28;20476;-70
2023/12/27 05:33:09;;;;;;;4.63;4.63;;;5.60;99.90;;;;;;5038363;28;20842;-72
2023/12/27 05:35:37;;;;;;;4.23;4.23;;;5.60;99.90;;;;;;5040104;28;20551;-71
2023/12/27 05:38:04;;;;;;;4.43;4.43;;;5.70;99.90;;;;;;5043206;28;20463;-72
2023/12/27 05:40:31;;;;;;;4.80;4.80;;;5.70;99.90;;;;;;5044414;28;20550;-71
2023/12/27 05:42:58;;;;;;;4.23;4.23;;;5.80;99.90;;;;;;5047735;28;20823;-70
2023/12/27 05:45:25;;;;;;;4.00;4.00;;;5.80;99.90;;;;;;5034205;28;20799;-70
2023/12/27 05:47:52;;;;;;;4.00;4.00;;;5.80;99.90;;;;;;5046847;28;20456;-72
2023/12/27 05:50:19;;;;;;;4.07;4.07;;;5.90;99.90;;;;;;5040036;28;20603;-72
2023/12/27 05:52:48;;;;;;;4.10;4.10;;;5.90;99.90;;;;;;5043213;28;20544;-70
2023/12/27 05:55:15;;;;;;;4.20;4.20;;;6.00;99.90;;;;;;5047204;28;20463;-70
2023/12/27 05:57:42;;;;;;;3.83;3.83;;;6.00;99.90;;;;;;5040553;28;20452;-69
2023/12/27 06:00:09;;;;;;;3.63;3.63;;;6.00;99.90;;;;;;5044089;28;20942;-69
2023/12/27 06:02:36;;;;;;;3.23;3.23;;;6.10;99.90;;;;;;5037201;28;20472;-71
2023/12/27 06:05:03;;;;;;;3.63;3.63;;;6.10;99.90;;;;;;5045759;28;20467;-71
2023/12/27 06:07:31;;;;;;;4.70;4.70;;;6.10;99.90;;;;;;5039196;28;20612;-71
2023/12/27 06:10:01;;;;;;;5.77;5.67;;;6.10;99.90;;;;;;5041952;28;20563;-71
2023/12/27 06:12:28;;;;;;;7.77;7.67;;;6.10;99.90;;;;;;5046355;28;20452;-70
2023/12/27 06:14:55;;;;;;;10.70;10.50;;;6.10;99.90;;;;;;5046372;28;20470;-69
2023/12/27 06:17:22;;;;;;;12.20;11.90;;;6.20;99.90;;;;;;5046661;28;20568;-70
2023/12/27 06:19:49;;;;;;;14.47;14.07;;;6.20;99.90;;;;;;5041339;28;20991;-69
2023/12/27 06:22:17;;;;;;;15.73;15.23;;;6.20;99.90;;;;;;5027859;28;20814;-70
2023/12/27 06:24:44;;;;;;;16.43;15.93;;;6.20;99.90;;;;;;5041954;28;20456;-71
2023/12/27 06:27:12;;;;;;;16.43;15.93;;;6.10;99.90;;;;;;5042933;28;20578;-70
2023/12/27 06:29:40;;;;;;;17.47;16.87;;;6.20;99.90;;;;;;5045579;28;20472;-70
2023/12/27 06:32:07;;;;;;;18.13;17.53;;;6.20;99.90;;;;;;5046123;28;20456;-70
2023/12/27 06:34:33;;;;;;;17.50;16.90;;;6.20;99.90;;;;;;5044968;28;20491;-71
2023/12/27 06:37:00;;;;;;;18.97;18.27;;;6.20;99.90;;;;;;5043683;28;20829;-71
2023/12/27 06:39:28;;;;;;;18.17;17.57;;;6.20;99.90;;;;;;5031725;28;20469;-72
2023/12/27 06:41:55;;;;;;;17.50;16.90;;;6.30;99.90;;;;;;5043159;28;20533;-70
2023/12/27 06:44:24;;;;;;;17.73;17.13;;;6.30;99.90;;;;;;5046272;28;20480;-70
2023/12/27 06:46:51;;;;;;;17.63;17.03;;;6.30;99.90;;;;;;5045701;28;20484;-70
2023/12/27 06:49:18;;;;;;;18.60;17.97;;;6.30;99.90;;;;;;5041071;28;20477;-70
2023/12/27 06:51:45;;;;;;;19.20;18.50;;;6.30;99.90;;;;;;5038145;28;20468;-71
2023/12/27 06:54:12;;;;;;;18.83;18.13;;;6.30;99.90;;;;;;5046189;28;20479;-71
2023/12/27 06:56:40;;;;;;;18.87;18.17;;;6.40;99.90;;;;;;5036710;28;20847;-71
2023/12/27 06:59:06;;;;;;;18.23;17.63;;;6.40;99.90;;;;;;5034737;28;20471;-71
2023/12/27 07:01:35;;;;;;;18.00;17.40;;;6.50;99.90;;;;;;5045194;28;20487;-69
2023/12/27 07:04:02;;;;;;;18.13;17.53;;;6.50;99.90;;;;;;5045850;28;20482;-70
2023/12/27 07:06:30;;;;;;;17.63;17.03;;;6.50;99.90;;;;;;5042440;28;20816;-70
2023/12/27 07:08:56;;;;;;;17.63;17.03;;;6.50;99.90;;;;;;5042531;28;20469;-70
2023/12/27 07:11:24;;;;;;;18.10;17.50;;;6.50;99.90;;;;;;5043998;28;20460;-71
2023/12/27 07:13:52;;;;;;;17.60;17.00;;;6.60;99.90;;;;;;5039628;28;20460;-71
2023/12/27 07:16:19;;;;;;;18.40;17.80;;;6.60;99.90;;;;;;5038905;28;20457;-71
2023/12/27 07:18:48;;;;;;;17.83;17.23;;;6.60;99.90;;;;;;5036441;28;20467;-71
2023/12/27 07:21:15;;;;;;;17.77;17.17;;;6.60;99.90;;;;;;5045057;28;20492;-71
2023/12/27 07:23:42;;;;;;;17.90;17.30;;;6.60;99.90;;;;;;5040428;28;20463;-71
2023/12/27 07:26:13;;;;;;;17.40;16.80;;;6.70;99.90;;;;;;5046074;28;20922;-71
2023/12/27 07:28:40;;;;;;;17.80;17.20;;;6.60;99.90;;;;;;5040009;28;20836;-72
2023/12/27 07:31:07;;;;;;;17.80;17.20;;;6.70;99.90;;;;;;5035889;28;20487;-72
2023/12/27 07:33:37;;;;;;;16.90;16.40;;;6.70;99.90;;;;;;5033949;28;20558;-71
2023/12/27 07:36:06;;;;;;;17.37;16.77;;;6.70;99.90;;;;;;5038251;28;20476;-72
2023/12/27 07:38:33;;;;;;;17.40;16.80;;;6.70;99.90;;;;;;5045198;28;20456;-71
2023/12/27 07:41:00;;;;;;;17.53;16.93;;;6.70;99.90;;;;;;5036090;28;20548;-71
2023/12/27 07:43:27;;;;;;;18.40;17.80;;;6.80;99.90;;;;;;5039349;28;20465;-72
2023/12/27 07:45:53;;;;;;;17.37;16.77;;;6.80;99.90;;;;;;5042957;28;20471;-71
2023/12/27 07:48:20;;;;;;;18.07;17.47;;;6.90;99.90;;;;;;5041289;28;20934;-72
2023/12/27 07:50:47;;;;;;;18.30;17.70;;;6.90;99.90;;;;;;5037875;28;20940;-72
2023/12/27 07:53:16;;;;;;;17.63;17.03;;;6.90;99.90;;;;;;5035584;28;20456;-71
2023/12/27 07:55:43;;;;;;;17.27;16.67;;;6.90;99.90;;;;;;5041061;28;20458;-70
2023/12/27 07:58:10;;;;;;;16.37;15.87;;;6.90;99.90;;;;;;5040408;28;20490;-70
2023/12/27 08:00:37;;;;;;;18.00;17.40;;;7.00;99.90;;;;;;5043189;28;20464;-71
2023/12/27 08:03:08;;;;;;;16.83;16.33;;;7.00;99.90;;;;;;5037228;28;21360;-70
2023/12/27 08:05:34;;;;;;;17.43;16.83;;;7.00;99.90;;;;;;5042385;28;20985;-71
2023/12/27 08:08:02;;;;;;;17.27;16.67;;;7.00;99.90;;;;;;5040497;28;21025;-71
2023/12/27 08:10:31;;;;;;;17.87;17.27;;;6.90;99.90;;;;;;5040741;28;20460;-71
2023/12/27 08:12:58;;;;;;;18.00;17.40;;;6.90;99.90;;;;;;5043346;28;20464;-71
2023/12/27 08:15:25;;;;;;;17.80;17.20;;;7.00;99.90;;;;;;5037364;28;20946;-71
2023/12/27 08:17:52;;;;;;;16.93;16.43;;;7.00;99.90;;;;;;5035019;28;21942;-73
2023/12/27 08:20:19;;;;;;;17.90;17.30;;;7.00;99.90;;;;;;5040531;28;20461;-72
2023/12/27 08:22:47;;;;;;;17.80;17.20;;;7.20;99.90;;;;;;5048743;28;20460;-72
2023/12/27 08:25:15;;;;;;;18.00;17.40;;;7.20;99.90;;;;;;5046823;28;20507;-72
2023/12/27 08:27:44;;;;;;;17.93;17.33;;;7.20;99.90;;;;;;5039132;28;20465;-72
2023/12/27 08:30:11;;;;;;;17.90;17.30;;;7.20;99.90;;;;;;5045764;28;20515;-72
2023/12/27 08:32:39;;;;;;;18.43;17.83;;;7.20;99.90;;;;;;5046658;28;20455;-72
2023/12/27 08:35:07;;;;;;;18.00;17.40;;;7.30;99.90;;;;;;5039063;28;20464;-72
2023/12/27 08:37:33;;;;;;;17.67;17.07;;;7.30;99.90;;;;;;5045117;28;20542;-73
2023/12/27 08:40:01;;;;;;;17.67;17.07;;;7.20;99.90;;;;;;5036641;28;20450;-72
2023/12/27 08:42:31;;;;;;;17.77;17.17;;;7.20;99.90;;;;;;5041421;28;20488;-72
2023/12/27 08:44:59;;;;;;;16.87;16.27;;;7.20;99.90;;;;;;5045749;28;20460;-72
2023/12/27 08:47:26;;;;;;;17.90;17.30;;;7.20;99.90;;;;;;5041661;28;20465;-72
2023/12/27 08:49:55;;;;;;;17.90;17.30;;;7.20;99.90;;;;;;5043702;28;20451;-72
2023/12/27 08:52:22;;;;;;;17.20;16.60;;;7.30;99.90;;;;;;5045470;28;20935;-72
2023/12/27 08:54:49;;;;;;;17.77;17.17;;;7.30;99.90;;;;;;5038133;28;20984;-72
2023/12/27 08:57:15;;;;;;;17.60;17.00;;;7.30;99.90;;;;;;5044709;28;20464;-72
2023/12/27 08:59:42;;;;;;;17.27;16.67;;;7.30;99.90;;;;;;5038978;28;20452;-72
2023/12/27 09:02:10;;;;;;;17.43;16.83;;;7.30;99.90;;;;;;5047542;28;20468;-72
2023/12/27 09:04:38;;;;;;;17.10;16.50;;;7.30;99.90;;;;;;5046567;28;20463;-72
2023/12/27 09:07:05;;;;;;;17.30;16.70;;;7.30;99.90;;;;;;5035376;28;20467;-72
2023/12/27 09:09:32;;;;;;;16.83;16.23;;;7.40;99.90;;;;;;5047304;28;20541;-72
2023/12/27 09:12:01;;;;;;;17.40;16.80;;;7.50;99.90;;;;;;5034338;28;20510;-72
2023/12/27 09:14:28;;;;;;;17.23;16.63;;;7.50;99.90;;;;;;5044847;28;20466;-72
2023/12/27 09:16:55;;;;;;;17.40;16.80;;;7.60;99.90;;;;;;5041480;28;20456;-72
2023/12/27 09:19:23;;;;;;;17.00;16.40;;;7.60;99.90;;;;;;5047008;28;20445;-72
2023/12/27 09:21:50;;;;;;;17.07;16.47;;;7.70;99.90;;;;;;5046785;28;20480;-72
2023/12/27 09:24:18;;;;;;;16.37;15.87;;;7.70;99.90;;;;;;5034482;28;20460;-72
2023/12/27 09:26:48;;;;;;;16.70;16.10;;;7.70;99.90;;;;;;5043523;28;20477;-72
2023/12/27 09:29:15;;;;;;;17.60;17.00;;;7.70;99.90;;;;;;5040133;28;21040;-72
2023/12/27 09:31:43;;;;;;;17.60;17.00;;;7.70;99.90;;;;;;5043268;28;20466;-72
2023/12/27 09:34:10;;;;;;;17.37;16.77;;;7.70;99.90;;;;;;5040306;28;20469;-72
2023/12/27 09:36:39;;;;;;;17.80;17.20;;;7.70;99.90;;;;;;5045495;28;20615;-72
2023/12/27 09:39:06;;;;;;;17.50;16.90;;;7.80;99.90;;;;;;5036896;28;20479;-73
2023/12/27 09:41:32;;;;;;;17.37;16.77;;;7.80;99.90;;;;;;5046014;28;21111;-73
2023/12/27 09:44:02;;;;;;;16.97;16.37;;;7.80;99.90;;;;;;5042345;28;20456;-74
2023/12/27 09:46:30;;;;;;;16.97;16.37;;;7.90;99.90;;;;;;5033653;28;20963;-74
2023/12/27 09:48:58;;;;;;;16.93;16.33;;;7.80;99.90;;;;;;5034602;28;21009;-74
2023/12/27 09:51:27;;;;;;;17.27;16.67;;;7.90;99.90;;;;;;5036936;28;20461;-72
2023/12/27 09:53:55;;;;;;;16.73;16.13;;;7.90;99.90;;;;;;5041416;28;20445;-72
2023/12/27 09:56:23;;;;;;;16.80;16.23;;;7.90;99.90;;;;;;5040790;28;20541;-71
2023/12/27 09:58:51;;;;;;;16.37;15.87;;;7.90;99.90;;;;;;5045986;28;20535;-73
2023/12/27 10:01:24;;;;;;;16.67;16.17;;;7.90;99.90;;;;;;5036554;28;20475;-74
2023/12/27 10:03:56;;;;;;;16.40;15.90;;;7.90;99.90;;;;;;5038997;28;20469;-72
2023/12/27 10:06:36;;;;;;;16.00;15.50;;;7.90;99.90;;;;;;5043993;28;20456;-73
2023/12/27 10:09:05;;;;;;;16.07;15.57;;;7.90;99.90;;;;;;5036243;28;20453;-72
2023/12/27 10:11:33;;;;;;;15.33;14.83;;;8.00;99.90;;;;;;5045933;28;20456;-74
2023/12/27 10:13:59;;;;;;;15.40;14.90;;;8.00;99.90;;;;;;5041465;28;22022;-73
2023/12/27 10:16:27;;;;;;;15.40;14.90;;;8.00;99.90;;;;;;5036452;28;20460;-74
2023/12/27 10:18:53;;;;;;;14.13;13.73;;;8.10;99.90;;;;;;5036060;28;20457;-73
2023/12/27 10:21:21;;;;;;;14.50;14.10;;;8.20;99.90;;;;;;5038078;28;20854;-74
2023/12/27 10:23:47;;;;;;;14.77;14.37;;;8.20;99.90;;;;;;5043611;28;20457;-72
2023/12/27 10:26:19;;;;;;;14.07;13.67;;;8.30;99.90;;;;;;5038945;28;20877;-73
2023/12/27 10:28:46;;;;;;;13.87;13.47;;;8.40;99.90;;;;;;5042653;28;20468;-71
2023/12/27 10:31:13;;;;;;;12.87;12.57;;;8.40;99.90;;;;;;5038883;28;20456;-74
2023/12/27 10:33:44;;;;;;;12.63;12.33;;;8.50;99.90;;;;;;5034647;28;20461;-71
2023/12/27 10:36:11;;;;;;;11.90;11.60;;;8.50;99.90;;;;;;5032058;28;20567;-73
2023/12/27 10:38:40;;;;;;;12.47;12.17;;;8.60;99.90;;;;;;5043585;28;20607;-71
2023/12/27 10:41:07;;;;;;;12.33;12.03;;;8.70;99.90;;;;;;5041554;28;20472;-73
2023/12/27 10:43:35;;;;;;;12.80;12.50;;;8.80;99.90;;;;;;5045360;28;20460;-74
2023/12/27 10:46:08;;;;;;;11.83;11.53;;;8.80;99.90;;;;;;5043093;28;20928;-74
2023/12/27 10:48:38;;;;;;;11.63;11.33;;;8.90;99.90;;;;;;5040103;28;20595;-73
2023/12/27 10:51:07;;;;;;;11.00;10.73;;;8.90;99.90;;;;;;5039679;28;20464;-73
2023/12/27 10:53:34;;;;;;;11.60;11.30;;;9.00;99.90;;;;;;5034063;28;20928;-71
2023/12/27 10:56:03;;;;;;;11.00;10.70;;;9.10;99.90;;;;;;5038510;28;20975;-73
2023/12/27 10:58:31;;;;;;;11.00;10.70;;;9.10;99.90;;;;;;5041256;28;20490;-72
2023/12/27 11:01:00;;;;;;;10.73;10.53;;;9.20;99.90;;;;;;5030781;28;20480;-74
2023/12/27 11:03:29;;;;;;;11.07;10.77;;;9.30;99.90;;;;;;5044790;28;20463;-70
2023/12/27 11:05:56;;;;;;;11.07;10.77;;;9.40;99.90;;;;;;5034245;28;20522;-72
2023/12/27 11:08:24;;;;;;;10.93;10.63;;;9.50;99.90;;;;;;5043502;28;20950;-71
2023/12/27 11:10:53;;;;;;;10.90;10.60;;;9.60;99.90;;;;;;5044960;28;20456;-72
2023/12/27 11:13:24;;;;;;;10.73;10.43;;;9.60;99.90;;;;;;5042382;28;20509;-72
2023/12/27 11:15:53;;;;;;;10.90;10.60;;;9.70;99.90;;;;;;5045126;28;20514;-73
2023/12/27 11:18:23;;;;;;;10.03;9.83;;;9.80;99.90;;;;;;5028825;28;20751;-72
2023/12/27 11:20:51;;;;;;;10.70;10.40;;;9.80;99.90;;;;;;5038174;28;20448;-73
2023/12/27 11:23:18;;;;;;;10.03;9.83;;;9.80;99.90;;;;;;5044442;28;20492;-72
2023/12/27 11:25:46;;;;;;;10.70;10.40;;;9.80;99.90;;;;;;5037441;28;20566;-73
2023/12/27 11:28:13;;;;;;;10.23;10.03;;;9.90;99.90;;;;;;5041716;28;20491;-73
2023/12/27 11:30:39;;;;;;;10.00;9.80;;;10.00;99.90;;;;;;5041097;28;20494;-73
2023/12/27 11:33:06;;;;;;;9.90;9.70;;;9.90;99.90;;;;;;5031804;28;20456;-72
2023/12/27 11:35:35;;;;;;;9.37;9.17;;;9.90;99.90;;;;;;5042233;28;20479;-74
2023/12/27 11:38:15;;;;;;;9.40;9.20;;;10.00;99.90;;;;;;5033524;28;20452;-72
2023/12/27 11:40:44;;;;;;;9.30;9.10;;;10.10;99.90;;;;;;5044386;28;20517;-72
2023/12/27 11:43:11;;;;;;;9.57;9.37;;;10.10;99.90;;;;;;5033287;28;20497;-71
2023/12/27 11:45:59;;;;;;;9.50;9.30;;;10.10;99.90;;;;;;5042527;28;20927;-72
2023/12/27 11:48:27;;;;;;;9.90;9.70;;;10.20;99.90;;;;;;5026233;28;20460;-72
2023/12/27 11:50:56;;;;;;;9.93;9.73;;;10.20;99.90;;;;;;5035102;28;20460;-73
2023/12/27 11:53:25;;;;;;;9.73;9.53;;;10.30;99.90;;;;;;5043919;28;20880;-70
2023/12/27 11:55:52;;;;;;;9.80;9.60;;;10.30;99.90;;;;;;5045268;28;20456;-73
2023/12/27 11:58:33;;;;;;;9.80;9.60;;;10.30;99.90;;;;;;5043695;28;20460;-71
2023/12/27 12:01:24;;;;;;;9.77;9.57;;;10.20;99.90;;;;;;5040335;28;20463;-71
2023/12/27 12:03:57;;;;;;;10.03;9.83;;;10.30;99.90;;;;;;5029295;28;20464;-71
2023/12/27 12:06:43;;;;;;;10.37;10.17;;;10.30;99.90;;;;;;5046710;28;20487;-73
2023/12/27 12:09:10;;;;;;;10.00;9.80;;;10.30;99.90;;;;;;5039498;28;20523;-72
2023/12/27 12:11:37;;;;;;;9.57;9.37;;;10.30;99.90;;;;;;5042272;28;22117;-73
2023/12/27 12:14:05;;;;;;;10.40;10.20;;;10.30;99.90;;;;;;5043450;28;20463;-71
2023/12/27 12:16:33;;;;;;;10.77;10.47;;;10.40;99.90;;;;;;5040418;28;20466;-71
2023/12/27 12:19:01;;;;;;;10.80;10.50;;;10.50;99.90;;;;;;5036367;28;20465;-72
2023/12/27 12:21:31;;;;;;;10.67;10.37;;;10.50;99.90;;;;;;5046331;28;20562;-73
2023/12/27 12:23:57;;;;;;;10.80;10.50;;;10.60;99.90;;;;;;5045153;28;20465;-72
2023/12/27 12:26:24;;;;;;;10.80;10.50;;;10.70;99.90;;;;;;5047016;28;20985;-73
2023/12/27 12:28:59;;;;;;;10.80;10.50;;;10.80;99.90;;;;;;5041626;28;20460;-71
2023/12/27 12:31:26;;;;;;;10.83;10.53;;;10.90;99.90;;;;;;5039186;28;20550;-72
2023/12/27 12:33:53;;;;;;;11.10;10.80;;;11.00;99.90;;;;;;5045925;28;20464;-72
2023/12/27 12:36:20;;;;;;;10.37;10.17;;;11.10;99.90;;;;;;5041079;28;20478;-71
2023/12/27 12:38:48;;;;;;;11.30;11.00;;;11.20;99.90;;;;;;5044985;28;20469;-73
2023/12/27 12:41:15;;;;;;;10.93;10.63;;;11.30;99.90;;;;;;5048158;28;20456;-72
2023/12/27 12:43:43;;;;;;;10.97;10.67;;;11.30;99.90;;;;;;5043220;28;20490;-71
2023/12/27 12:46:12;;;;;;;11.20;10.90;;;11.40;99.90;;;;;;5034551;28;20790;-72
2023/12/27 12:48:40;;;;;;;11.47;11.17;;;11.40;99.90;;;;;;5038217;28;20465;-72